createdAt,value
2019-04-03T00:04:16.787Z,46.04
2019-04-03T00:09:18.389Z,45.05
2019-04-03T00:14:20.690Z,44.87
2019-04-03T00:19:22.425Z,49.25
2019-04-03T00:24:24.114Z,47.07
2019-04-03T00:29:25.847Z,49.69
2019-04-03T00:34:27.609Z,46.90
2019-04-03T00:39:29.380Z,46.34
2019-04-03T00:44:31.083Z,44.29
2019-04-03T00:49:32.887Z,43.65
2019-04-03T00:54:34.705Z,42.46
2019-04-03T00:59:36.425Z,42.79
2019-04-03T01:04:38.246Z,43.71
2019-04-03T01:09:40.005Z,42.36
2019-04-03T01:14:41.745Z,44.48
2019-04-03T01:19:43.513Z,43.68
2019-04-03T01:24:45.312Z,43.25
2019-04-03T01:29:47.056Z,46.85
2019-04-03T01:34:48.749Z,44.62
2019-04-03T01:39:51.236Z,44.70
2019-04-03T01:44:55.032Z,45.06
2019-04-03T01:49:58.459Z,49.46
2019-04-03T01:55:03.388Z,45.50
2019-04-03T02:00:06.971Z,44.88
2019-04-03T02:05:08.805Z,44.86
2019-04-03T02:10:20.330Z,44.66
2019-04-03T02:15:23.053Z,44.80
2019-04-03T02:20:26.761Z,44.65
2019-04-03T02:25:31.555Z,45.62
2019-04-03T02:30:32.825Z,44.21
2019-04-03T02:35:34.674Z,43.71
2019-04-03T02:40:36.396Z,47.78
2019-04-03T02:45:38.556Z,46.69
2019-04-03T02:50:40.294Z,46.89
2019-04-03T02:55:42.011Z,47.65
2019-04-03T03:00:43.779Z,47.25
2019-04-03T03:05:45.552Z,45.96
2019-04-03T03:10:48.979Z,46.55
2019-04-03T03:15:51.010Z,48.63
2019-04-03T03:20:52.888Z,48.83
2019-04-03T03:25:54.739Z,48.08
2019-04-03T03:31:02.031Z,47.19
2019-04-03T03:36:01.518Z,47.38
2019-04-03T03:41:03.482Z,48.02
2019-04-03T03:46:05.804Z,49.23
2019-04-03T03:51:07.667Z,49.53
2019-04-03T03:56:09.619Z,49.21
2019-04-03T04:01:11.362Z,48.93
2019-04-03T04:06:13.361Z,48.90
2019-04-03T04:11:15.536Z,49.67
2019-04-03T04:16:18.503Z,49.47
2019-04-03T04:21:20.222Z,49.57
2019-04-03T04:26:21.950Z,49.64
2019-04-03T04:31:24.581Z,50.63
2019-04-03T04:36:26.355Z,51.39
2019-04-03T04:41:28.154Z,50.90
2019-04-03T04:46:29.965Z,51.14
2019-04-03T04:51:31.822Z,51.99
2019-04-03T04:56:33.570Z,51.39
2019-04-03T05:01:35.267Z,51.20
2019-04-03T05:06:37.022Z,52.24
2019-04-03T05:11:39.469Z,52.78
2019-04-03T05:16:41.236Z,53.69
2019-04-03T05:21:43.185Z,52.11
2019-04-03T05:26:44.978Z,52.54
2019-04-03T05:31:46.762Z,50.39
2019-04-03T05:36:49.148Z,52.55
2019-04-03T05:41:50.985Z,51.30
2019-04-03T05:46:52.765Z,51.18
2019-04-03T05:51:54.653Z,49.11
2019-04-03T05:56:56.442Z,47.90
2019-04-03T06:01:58.369Z,47.13
2019-04-03T06:07:00.270Z,46.47
2019-04-03T06:12:02.074Z,44.64
2019-04-03T06:17:03.792Z,43.32
2019-04-03T06:22:05.609Z,41.32
2019-04-03T06:27:09.182Z,40.98
2019-04-03T06:32:11.059Z,41.12
2019-04-03T06:37:16.027Z,39.06
2019-04-03T06:42:17.863Z,38.41
2019-04-03T06:47:19.667Z,39.39
2019-04-03T06:52:22.137Z,37.97
2019-04-03T06:57:23.934Z,38.31
2019-04-03T07:02:27.725Z,37.34
2019-04-03T07:07:34.310Z,38.14
2019-04-03T07:12:34.168Z,36.84
2019-04-03T07:17:36.253Z,35.32
2019-04-03T07:22:38.043Z,34.26
2019-04-03T07:27:41.883Z,33.98
2019-04-03T07:32:43.542Z,32.56
2019-04-03T07:37:45.383Z,30.27
2019-04-03T07:42:47.141Z,31.76
2019-04-03T07:47:48.915Z,30.52
2019-04-03T07:52:50.751Z,30.49
2019-04-03T07:57:52.760Z,28.10
2019-04-03T08:02:54.617Z,29.16
2019-04-03T08:07:56.550Z,29.77
2019-04-03T08:12:59.885Z,27.16
2019-04-03T08:18:01.945Z,30.91
2019-04-03T08:23:05.951Z,28.25
2019-04-03T08:28:07.430Z,28.94
2019-04-03T08:33:15.919Z,28.68
2019-04-03T08:38:14.170Z,27.60
2019-04-03T08:43:16.251Z,26.14
2019-04-03T08:48:18.305Z,27.39
2019-04-03T08:53:20.647Z,26.73
2019-04-03T08:58:25.414Z,25.46
2019-04-03T09:03:26.263Z,26.89
2019-04-03T09:08:30.827Z,25.68
2019-04-03T09:13:33.667Z,25.71
2019-04-03T09:18:38.044Z,25.29
2019-04-03T09:23:39.066Z,27.19
2019-04-03T09:28:41.915Z,25.43
2019-04-03T09:33:45.306Z,26.78
2019-04-03T09:38:47.219Z,26.02
2019-04-03T09:43:49.253Z,26.32
2019-04-03T09:48:51.568Z,26.28
2019-04-03T09:53:53.680Z,23.75
2019-04-03T09:58:56.680Z,23.75
2019-04-03T10:03:58.964Z,25.09
2019-04-03T10:09:00.906Z,24.94
2019-04-03T10:14:04.456Z,24.19
2019-04-03T10:19:06.285Z,25.37
2019-04-03T10:24:08.164Z,24.11
2019-04-03T10:29:09.924Z,24.65
2019-04-03T10:34:13.979Z,23.84
2019-04-03T10:39:15.955Z,24.67
2019-04-03T10:44:18.258Z,24.13
2019-04-03T10:49:20.062Z,23.23
2019-04-03T10:54:23.948Z,23.23
2019-04-03T10:59:25.785Z,23.19
2019-04-03T11:04:27.555Z,22.59
2019-04-03T11:09:29.266Z,25.78
2019-04-03T11:14:31.091Z,23.36
2019-04-03T11:19:32.827Z,24.52
2019-04-03T11:24:37.706Z,25.31
2019-04-03T11:29:40.993Z,24.29
2019-04-03T11:34:42.305Z,23.21
2019-04-03T11:39:46.243Z,22.68
2019-04-03T11:44:48.124Z,23.73
2019-04-03T11:49:52.501Z,23.04
2019-04-03T11:54:53.616Z,21.93
2019-04-03T11:59:56.921Z,23.31
2019-04-03T12:04:59.003Z,23.57
2019-04-03T12:10:02.883Z,23.30
2019-04-03T12:15:07.785Z,24.10
2019-04-03T12:20:09.971Z,23.29
2019-04-03T12:25:14.008Z,24.53
2019-04-03T12:30:16.157Z,24.13
2019-04-03T12:35:17.983Z,25.67
2019-04-03T12:40:19.806Z,25.19
2019-04-03T12:45:21.658Z,25.67
2019-04-03T12:50:26.879Z,24.59
2019-04-03T12:55:27.182Z,25.56
2019-04-03T13:00:28.862Z,24.31
2019-04-03T13:05:30.732Z,25.07
2019-04-03T13:10:41.483Z,25.32
2019-04-03T13:15:37.589Z,24.20
2019-04-03T13:20:39.941Z,25.06
2019-04-03T13:25:42.053Z,25.05
2019-04-03T13:30:44.653Z,26.37
2019-04-03T13:35:48.147Z,26.16
2019-04-03T13:40:50.947Z,25.87
2019-04-03T13:45:52.856Z,25.71
2019-04-03T13:50:55.498Z,27.59
2019-04-03T13:55:57.995Z,28.05
2019-04-03T14:01:02.775Z,27.63
2019-04-03T14:06:04.386Z,27.80
2019-04-03T14:11:07.191Z,28.95
2019-04-03T14:16:19.731Z,31.23
2019-04-03T14:21:14.082Z,32.60
2019-04-03T14:26:15.971Z,33.04
2019-04-03T14:31:18.661Z,34.88
2019-04-03T14:36:20.828Z,32.10
2019-04-03T14:41:23.082Z,34.48
2019-04-03T14:46:24.916Z,32.20
2019-04-03T14:51:27.197Z,32.10
2019-04-03T14:56:30.385Z,32.11
2019-04-03T15:01:33.134Z,34.85
2019-04-03T15:06:34.951Z,33.80
2019-04-03T15:11:37.003Z,34.48
2019-04-03T15:16:39.024Z,32.83
2019-04-03T15:21:40.966Z,33.14
2019-04-03T15:26:43.129Z,32.57
2019-04-03T15:31:46.298Z,31.95
2019-04-03T15:36:51.544Z,31.71
2019-04-03T15:41:53.459Z,27.80
2019-04-03T15:46:55.263Z,30.08
2019-04-03T15:51:57.014Z,31.26
2019-04-03T15:56:58.957Z,32.05
2019-04-03T16:02:00.748Z,28.88
2019-04-03T16:07:02.888Z,29.33
2019-04-03T16:12:06.235Z,28.41
2019-04-03T16:17:08.755Z,27.96
2019-04-03T16:22:11.780Z,30.49
2019-04-03T16:27:13.925Z,28.34
2019-04-03T16:32:16.012Z,29.45
2019-04-03T16:37:20.517Z,30.30
2019-04-03T16:42:22.618Z,30.45
2019-04-03T16:47:27.535Z,30.97
2019-04-03T16:52:30.226Z,30.84
2019-04-03T16:57:32.200Z,31.69
2019-04-03T17:02:34.325Z,32.18
2019-04-03T17:07:37.718Z,32.96
2019-04-03T17:12:40.769Z,31.95
2019-04-03T17:17:46.122Z,32.64
2019-04-03T17:22:47.478Z,32.71
2019-04-03T17:27:54.965Z,33.04
2019-04-03T17:32:53.045Z,33.13
2019-04-03T17:37:54.948Z,32.79
2019-04-03T17:42:56.751Z,33.57
2019-04-03T17:48:00.542Z,34.62
2019-04-03T17:53:02.315Z,34.35
2019-04-03T17:58:04.359Z,34.61
2019-04-03T18:03:06.117Z,34.55
2019-04-03T18:08:07.833Z,35.14
2019-04-03T18:13:09.671Z,35.02
2019-04-03T18:18:11.474Z,35.62
2019-04-03T18:23:13.297Z,36.16
2019-04-03T18:28:15.075Z,35.43
2019-04-03T18:33:17.544Z,35.63
2019-04-03T18:38:19.586Z,39.29
2019-04-03T18:43:22.405Z,35.97
2019-04-03T18:48:24.379Z,36.18
2019-04-03T18:53:26.117Z,36.30
2019-04-03T18:58:27.978Z,36.50
2019-04-03T19:03:29.882Z,36.05
2019-04-03T19:08:32.224Z,36.78
2019-04-03T19:13:34.162Z,36.26
2019-04-03T19:18:36.061Z,36.03
2019-04-03T19:23:49.132Z,37.04
2019-04-03T19:28:41.577Z,37.13
2019-04-03T19:33:45.491Z,35.74
2019-04-03T19:38:47.006Z,34.97
2019-04-03T19:43:48.769Z,35.72
2019-04-03T19:48:50.689Z,35.00
2019-04-03T19:53:59.275Z,34.72
2019-04-03T19:58:56.293Z,35.21
2019-04-03T20:03:59.724Z,34.76
2019-04-03T20:09:04.992Z,35.26
2019-04-03T20:14:09.518Z,34.13
2019-04-03T20:19:11.608Z,37.48
2019-04-03T20:24:28.816Z,35.89
2019-04-03T20:29:31.864Z,35.26
2019-04-03T20:34:33.727Z,35.44
2019-04-03T20:39:35.545Z,35.04
2019-04-03T20:44:38.953Z,35.31
2019-04-03T20:49:43.568Z,35.54
2019-04-03T20:54:45.585Z,34.15
2019-04-03T20:59:58.498Z,34.83
2019-04-03T21:04:51.111Z,35.92
2019-04-03T21:09:52.845Z,36.40
2019-04-03T21:15:07.432Z,36.46
2019-04-03T21:19:58.350Z,35.58
2019-04-03T21:25:00.190Z,36.58
2019-04-03T21:30:02.261Z,35.73
2019-04-03T21:35:04.433Z,36.11
2019-04-03T21:40:06.268Z,35.49
2019-04-03T21:45:08.225Z,35.27
2019-04-03T21:50:10.159Z,35.33
2019-04-03T21:55:11.893Z,34.54
2019-04-03T22:00:15.907Z,36.65
2019-04-03T22:05:19.448Z,35.97
2019-04-03T22:10:21.465Z,34.73
2019-04-03T22:15:23.331Z,36.80
2019-04-03T22:20:25.282Z,37.22
2019-04-03T22:25:27.192Z,37.80
2019-04-03T22:30:29.078Z,38.58
2019-04-03T22:35:32.157Z,39.15
2019-04-03T22:40:34.683Z,39.24
2019-04-03T22:45:36.513Z,39.36
2019-04-03T22:50:38.317Z,39.46
2019-04-03T22:55:40.188Z,40.29
2019-04-03T23:00:41.992Z,39.90
2019-04-03T23:05:43.847Z,40.63
2019-04-03T23:10:45.632Z,40.23
2019-04-03T23:15:47.503Z,41.68
2019-04-03T23:20:52.602Z,40.64
2019-04-03T23:25:53.086Z,40.78
2019-04-03T23:30:54.911Z,42.61
2019-04-03T23:35:56.902Z,42.84
2019-04-03T23:40:58.790Z,41.12
2019-04-03T23:46:01.581Z,42.14
2019-04-03T23:51:03.585Z,43.29
2019-04-03T23:56:07.400Z,42.56
